KHRL/HRL METAR and TAF weather

Enter ICAO airport designator
Station Type Date Time Source
KHRL METAR 2018/12/13 05:52 UTC NOAA

KHRL 130552Z 24007KT 8SM -RA OVC110 20/18 A2990 RMK AO2 SLP123 P0005 60005 T02000178 10217 20200 402610122 50005


Station Type Date Time Source
KHRL Decoded METAR 2018/12/13 05:52 UTC NOAA

RIO GRANDE VALLEY, TX, United States (KHRL) 26-13N 97-39W 10M
Dec 13, 2018 - 12:52 AM EST / 2018.12.13 0552 UTC
Wind: from the WSW (240 degrees) at 8 MPH (7 KT):0
Visibility: 8 mile(s):0
Sky conditions: overcast
Weather: light rain
Precipitation last hour: 0.05 inches
Temperature: 68.0 F (20.0 C)
Dew Point: 64.0 F (17.8 C)
Relative Humidity: 87%
Pressure (altimeter): 29.9 in. Hg (1012 hPa)
Pressure tendency: 0.01 inches (0.5 hPa) higher than three hours ago
ob: KHRL 130552Z 24007KT 8SM -RA OVC110 20/18 A2990 RMK AO2 SLP123 P0005 60005 T02000178 10217 20200 402610122 50005
cycle: 6

Station Type Date Time Source
KHRL TAF 2018/12/13 06:33 UTC NOAA

TAF KHRL 130529Z 1306/1406 18010KT P6SM -SHRA OVC050
FM131500 23016G26KT P6SM SKC
FM131800 29022G36KT P6SM SCT250


Example: see airport list